createdAt,value
2016-12-03T00:00:11.550Z,1017.8
2016-12-03T00:00:50.357Z,1017.82
2016-12-03T00:01:29.151Z,1017.8
2016-12-03T00:02:07.926Z,1017.8
2016-12-03T00:02:46.701Z,1017.79
2016-12-03T00:03:25.478Z,1017.75
2016-12-03T00:04:04.263Z,1017.77
2016-12-03T00:04:43.038Z,1017.78
2016-12-03T00:05:21.813Z,1017.78
2016-12-03T00:06:00.593Z,1017.78
2016-12-03T00:06:39.370Z,1017.76
2016-12-03T00:07:18.145Z,1017.81
2016-12-03T00:07:56.923Z,1017.82
2016-12-03T00:08:35.697Z,1017.76
2016-12-03T00:09:14.472Z,1017.76
2016-12-03T00:09:53.246Z,1017.77
2016-12-03T00:10:32.407Z,1017.77
2016-12-03T00:11:11.181Z,1017.77
2016-12-03T00:11:49.960Z,1017.71
2016-12-03T00:12:28.736Z,1017.75
2016-12-03T00:13:07.510Z,1017.75
2016-12-03T00:13:46.285Z,1017.74
2016-12-03T00:14:25.060Z,1017.75
2016-12-03T00:15:03.834Z,1017.74
2016-12-03T00:15:42.609Z,1017.74
2016-12-03T00:16:21.382Z,1017.75
2016-12-03T00:17:00.163Z,1017.77
2016-12-03T00:17:38.937Z,1017.77
2016-12-03T00:18:17.714Z,1017.79
2016-12-03T00:18:56.488Z,1017.76
2016-12-03T00:19:35.263Z,1017.78
2016-12-03T00:20:14.044Z,1017.78
2016-12-03T00:20:52.822Z,1017.79
2016-12-03T00:21:31.592Z,1017.74
2016-12-03T00:22:10.362Z,1017.79
2016-12-03T00:22:49.135Z,1017.79
2016-12-03T00:23:28.265Z,1017.8
2016-12-03T00:24:07.039Z,1017.78
2016-12-03T00:24:45.817Z,1017.83
2016-12-03T00:25:24.593Z,1017.81
2016-12-03T00:26:03.364Z,1017.82
2016-12-03T00:26:42.144Z,1017.8
2016-12-03T00:27:20.915Z,1017.83
2016-12-03T00:27:59.689Z,1017.83
2016-12-03T00:28:38.462Z,1017.86
2016-12-03T00:29:17.244Z,1017.82
2016-12-03T00:29:56.016Z,1017.87
2016-12-03T00:30:34.795Z,1017.84
2016-12-03T00:31:13.572Z,1017.87
2016-12-03T00:31:52.349Z,1017.86
2016-12-03T00:32:31.134Z,1017.85
2016-12-03T00:33:09.912Z,1017.84
2016-12-03T00:33:48.686Z,1017.83
2016-12-03T00:34:27.455Z,1017.83
2016-12-03T00:35:06.294Z,1017.83
2016-12-03T00:35:45.067Z,1017.84
2016-12-03T00:36:23.837Z,1017.84
2016-12-03T00:37:02.648Z,1017.8
2016-12-03T00:37:41.425Z,1017.83
2016-12-03T00:38:20.196Z,1017.83
2016-12-03T00:38:58.975Z,1017.74
2016-12-03T00:39:37.758Z,1017.77
2016-12-03T00:40:16.560Z,1017.76
2016-12-03T00:40:55.362Z,1017.81
2016-12-03T00:41:34.141Z,1017.77
2016-12-03T00:42:12.915Z,1017.8
2016-12-03T00:42:51.694Z,1017.77
2016-12-03T00:43:30.467Z,1017.79
2016-12-03T00:44:09.239Z,1017.79
2016-12-03T00:44:48.022Z,1017.79
2016-12-03T00:45:26.796Z,1017.8
2016-12-03T00:46:05.566Z,1017.77
2016-12-03T00:46:44.340Z,1017.75
2016-12-03T00:47:23.118Z,1017.76
2016-12-03T00:48:01.896Z,1017.75
2016-12-03T00:48:40.692Z,1017.78
2016-12-03T00:49:19.501Z,1017.77
2016-12-03T00:49:58.302Z,1017.78
2016-12-03T00:50:37.075Z,1017.77
2016-12-03T00:51:15.848Z,1017.74
2016-12-03T00:51:54.622Z,1017.75
2016-12-03T00:52:33.403Z,1017.78
2016-12-03T00:53:12.180Z,1017.79
2016-12-03T00:53:51.310Z,1017.78
2016-12-03T00:54:30.088Z,1017.79
2016-12-03T00:55:08.863Z,1017.8
2016-12-03T00:55:47.640Z,1017.81
2016-12-03T00:56:26.416Z,1017.77
2016-12-03T00:57:05.224Z,1017.83
2016-12-03T00:57:44.036Z,1017.8
2016-12-03T00:58:22.814Z,1017.77
2016-12-03T00:59:01.593Z,1017.83
2016-12-03T00:59:40.369Z,1017.79
2016-12-03T01:00:19.147Z,1017.78
2016-12-03T01:00:57.927Z,1017.8
2016-12-03T01:01:36.737Z,1017.74
2016-12-03T01:02:15.518Z,1017.76
2016-12-03T01:02:54.290Z,1017.78
2016-12-03T01:03:33.062Z,1017.8
2016-12-03T01:04:11.835Z,1017.78
2016-12-03T01:04:50.612Z,1017.78
2016-12-03T01:05:29.388Z,1017.79
2016-12-03T01:06:08.165Z,1017.81
2016-12-03T01:06:46.943Z,1017.83
2016-12-03T01:07:25.714Z,1017.82
2016-12-03T01:08:04.664Z,1017.86
2016-12-03T01:08:43.453Z,1017.83
2016-12-03T01:09:22.410Z,1017.84
2016-12-03T01:10:01.204Z,1017.85
2016-12-03T01:10:40.340Z,1017.82
2016-12-03T01:11:19.117Z,1017.83
2016-12-03T01:11:57.893Z,1017.86
2016-12-03T01:12:36.671Z,1017.86
2016-12-03T01:13:15.446Z,1017.87
2016-12-03T01:13:54.223Z,1017.85
2016-12-03T01:14:32.998Z,1017.83
2016-12-03T01:15:11.770Z,1017.87
2016-12-03T01:15:50.903Z,1017.84
2016-12-03T01:16:30.026Z,1017.82
2016-12-03T01:17:08.800Z,1017.81
2016-12-03T01:17:47.581Z,1017.84
2016-12-03T01:18:26.354Z,1017.84
2016-12-03T01:19:05.133Z,1017.84
2016-12-03T01:19:43.907Z,1017.87
2016-12-03T01:20:22.682Z,1017.83
2016-12-03T01:21:01.460Z,1017.8
2016-12-03T01:21:40.229Z,1017.79
2016-12-03T01:22:19.010Z,1017.78
2016-12-03T01:22:57.790Z,1017.81
2016-12-03T01:23:36.566Z,1017.75
2016-12-03T01:24:15.346Z,1017.76
2016-12-03T01:24:54.120Z,1017.74
2016-12-03T01:25:32.895Z,1017.77
2016-12-03T01:26:11.671Z,1017.77
2016-12-03T01:26:50.445Z,1017.76
2016-12-03T01:27:29.219Z,1017.77
2016-12-03T01:28:07.993Z,1017.78
2016-12-03T01:28:46.774Z,1017.78
2016-12-03T01:29:25.550Z,1017.78
2016-12-03T01:30:04.333Z,1017.76
2016-12-03T01:30:43.105Z,1017.75
2016-12-03T01:31:21.881Z,1017.76
2016-12-03T01:32:00.657Z,1017.77
2016-12-03T01:32:39.435Z,1017.79
2016-12-03T01:33:18.207Z,1017.81
2016-12-03T01:33:56.981Z,1017.8
2016-12-03T01:34:35.756Z,1017.77
2016-12-03T01:35:14.539Z,1017.81
2016-12-03T01:35:53.311Z,1017.79
2016-12-03T01:36:32.096Z,1017.81
2016-12-03T01:37:10.874Z,1017.83
2016-12-03T01:37:49.645Z,1017.81
2016-12-03T01:38:28.416Z,1017.82
2016-12-03T01:39:07.188Z,1017.82
2016-12-03T01:39:45.966Z,1017.77
2016-12-03T01:40:24.744Z,1017.78
2016-12-03T01:41:03.524Z,1017.78
2016-12-03T01:41:42.293Z,1017.77
2016-12-03T01:42:21.060Z,1017.76
2016-12-03T01:42:59.835Z,1017.77
2016-12-03T01:43:38.619Z,1017.77
2016-12-03T01:44:17.398Z,1017.79
2016-12-03T01:44:56.176Z,1017.78
2016-12-03T01:45:34.952Z,1017.82
2016-12-03T01:46:13.728Z,1017.84
2016-12-03T01:46:52.503Z,1017.83
2016-12-03T01:47:31.277Z,1017.84
2016-12-03T01:48:10.054Z,1017.87
2016-12-03T01:48:48.825Z,1017.88
2016-12-03T01:49:27.601Z,1017.9
2016-12-03T01:50:06.375Z,1017.89
2016-12-03T01:50:45.155Z,1017.92
2016-12-03T01:51:23.928Z,1017.89
2016-12-03T01:52:02.706Z,1017.9
2016-12-03T01:52:41.510Z,1017.87
2016-12-03T01:53:20.291Z,1017.87
2016-12-03T01:53:59.064Z,1017.9
2016-12-03T01:54:37.844Z,1017.85
2016-12-03T01:55:16.618Z,1017.85
2016-12-03T01:55:55.394Z,1017.85
2016-12-03T01:56:34.168Z,1017.94
2016-12-03T01:57:12.946Z,1017.92
2016-12-03T01:57:51.728Z,1017.91
2016-12-03T01:58:30.509Z,1017.87
2016-12-03T01:59:09.281Z,1017.84
2016-12-03T01:59:48.407Z,1017.84
2016-12-03T02:00:27.183Z,1017.84
2016-12-03T02:01:05.956Z,1017.89
2016-12-03T02:01:44.737Z,1017.91
2016-12-03T02:02:23.515Z,1017.93
2016-12-03T02:03:02.315Z,1017.92
2016-12-03T02:03:41.090Z,1017.94
2016-12-03T02:04:19.862Z,1017.98
2016-12-03T02:04:58.638Z,1017.96
2016-12-03T02:05:37.825Z,1017.99
2016-12-03T02:06:16.596Z,1017.94
2016-12-03T02:06:55.369Z,1017.89
2016-12-03T02:07:34.496Z,1017.87
2016-12-03T02:08:13.272Z,1017.85
2016-12-03T02:08:52.046Z,1017.86
2016-12-03T02:09:30.824Z,1017.88
2016-12-03T02:10:09.602Z,1017.84
2016-12-03T02:10:48.379Z,1017.88
2016-12-03T02:11:27.159Z,1017.89
2016-12-03T02:12:06.295Z,1017.84
2016-12-03T02:12:45.075Z,1017.85
2016-12-03T02:13:23.850Z,1017.87
2016-12-03T02:14:02.626Z,1017.87
2016-12-03T02:14:41.401Z,1017.89
2016-12-03T02:15:20.179Z,1017.93
2016-12-03T02:15:58.956Z,1017.92
2016-12-03T02:16:38.090Z,1017.9
2016-12-03T02:17:16.861Z,1017.9
2016-12-03T02:17:55.637Z,1017.9
2016-12-03T02:18:34.414Z,1017.84
2016-12-03T02:19:13.191Z,1017.84
2016-12-03T02:19:51.974Z,1017.87
2016-12-03T02:20:30.747Z,1017.89
2016-12-03T02:21:09.910Z,1017.87
2016-12-03T02:21:48.682Z,1017.9
2016-12-03T02:22:27.452Z,1017.89
2016-12-03T02:23:06.226Z,1017.88
2016-12-03T02:23:45.006Z,1017.92
2016-12-03T02:24:23.780Z,1017.89
2016-12-03T02:25:02.554Z,1017.89
2016-12-03T02:25:41.330Z,1017.89
2016-12-03T02:26:20.101Z,1017.89
2016-12-03T02:26:58.881Z,1017.91
2016-12-03T02:27:37.662Z,1017.9
2016-12-03T02:28:16.443Z,1017.89
2016-12-03T02:28:55.225Z,1017.87
2016-12-03T02:29:34.006Z,1017.88
2016-12-03T02:30:12.786Z,1017.88
2016-12-03T02:30:51.564Z,1017.84
2016-12-03T02:31:30.343Z,1017.85
2016-12-03T02:32:09.126Z,1017.85
2016-12-03T02:32:47.914Z,1017.91
2016-12-03T02:33:26.691Z,1017.9
2016-12-03T02:34:05.471Z,1017.93
2016-12-03T02:34:44.249Z,1017.92
2016-12-03T02:35:23.024Z,1017.92
2016-12-03T02:36:01.808Z,1017.89
2016-12-03T02:36:40.589Z,1017.86
2016-12-03T02:37:19.369Z,1017.85
2016-12-03T02:37:58.149Z,1017.79
2016-12-03T02:38:36.930Z,1017.81
2016-12-03T02:39:15.712Z,1017.79
2016-12-03T02:39:54.491Z,1017.8
2016-12-03T02:40:33.625Z,1017.87
2016-12-03T02:41:12.758Z,1017.85
2016-12-03T02:41:51.538Z,1017.86
2016-12-03T02:42:30.320Z,1017.87
2016-12-03T02:43:09.103Z,1017.9
2016-12-03T02:43:47.884Z,1017.89
2016-12-03T02:44:26.662Z,1017.85
2016-12-03T02:45:05.439Z,1017.88
2016-12-03T02:45:44.223Z,1017.94
2016-12-03T02:46:23.025Z,1017.93
2016-12-03T02:47:01.800Z,1017.89
2016-12-03T02:47:40.579Z,1017.91
2016-12-03T02:48:19.361Z,1017.88
2016-12-03T02:48:58.143Z,1017.95
2016-12-03T02:49:36.922Z,1018
2016-12-03T02:50:15.699Z,1018.01
2016-12-03T02:50:54.829Z,1017.98
2016-12-03T02:51:33.608Z,1017.97
2016-12-03T02:52:12.391Z,1017.92
2016-12-03T02:52:51.176Z,1017.9
2016-12-03T02:53:30.304Z,1017.96
2016-12-03T02:54:09.083Z,1017.96
2016-12-03T02:54:47.859Z,1017.96
2016-12-03T02:55:26.642Z,1017.97
2016-12-03T02:56:05.422Z,1017.97
2016-12-03T02:56:44.202Z,1017.95
2016-12-03T02:57:22.980Z,1017.94
2016-12-03T02:58:01.761Z,1017.94
2016-12-03T02:58:40.542Z,1017.93
2016-12-03T02:59:19.680Z,1017.93
2016-12-03T02:59:58.464Z,1017.93
2016-12-03T03:00:37.249Z,1017.9
2016-12-03T03:01:16.031Z,1017.93
2016-12-03T03:01:54.811Z,1017.92
2016-12-03T03:02:33.593Z,1017.95
2016-12-03T03:03:12.377Z,1017.96
2016-12-03T03:03:51.160Z,1017.95
2016-12-03T03:04:29.940Z,1017.88
2016-12-03T03:05:08.722Z,1017.89
2016-12-03T03:05:47.500Z,1017.87
2016-12-03T03:06:26.280Z,1017.86
2016-12-03T03:07:05.063Z,1017.9
2016-12-03T03:07:43.851Z,1017.93
2016-12-03T03:08:22.627Z,1017.93
2016-12-03T03:09:01.407Z,1017.89
2016-12-03T03:09:40.185Z,1017.84
2016-12-03T03:10:18.967Z,1017.86
2016-12-03T03:10:57.745Z,1017.89
2016-12-03T03:11:36.529Z,1017.9
2016-12-03T03:12:15.311Z,1017.89
2016-12-03T03:12:54.090Z,1017.86
2016-12-03T03:13:32.874Z,1017.89
2016-12-03T03:14:11.651Z,1017.85
2016-12-03T03:14:50.434Z,1017.84
2016-12-03T03:15:29.218Z,1017.83
2016-12-03T03:16:08.014Z,1017.84
2016-12-03T03:16:46.799Z,1017.8
2016-12-03T03:17:25.575Z,1017.83
2016-12-03T03:18:04.361Z,1017.83
2016-12-03T03:18:43.144Z,1017.81
2016-12-03T03:19:21.930Z,1017.86
2016-12-03T03:20:00.707Z,1017.87
2016-12-03T03:20:39.492Z,1017.83
2016-12-03T03:21:18.276Z,1017.83
2016-12-03T03:21:57.054Z,1017.81
2016-12-03T03:22:35.841Z,1017.81
2016-12-03T03:23:14.647Z,1017.8
2016-12-03T03:23:53.426Z,1017.79
2016-12-03T03:24:32.205Z,1017.82
2016-12-03T03:25:11.046Z,1017.78
2016-12-03T03:25:49.833Z,1017.78
2016-12-03T03:26:28.618Z,1017.77
2016-12-03T03:27:07.396Z,1017.79
2016-12-03T03:27:46.209Z,1017.76
2016-12-03T03:28:24.988Z,1017.77
2016-12-03T03:29:03.772Z,1017.85
2016-12-03T03:29:42.554Z,1017.81
2016-12-03T03:30:21.336Z,1017.81
2016-12-03T03:31:00.155Z,1017.86
2016-12-03T03:31:38.939Z,1017.86
2016-12-03T03:32:17.718Z,1017.83
2016-12-03T03:32:56.504Z,1017.85
2016-12-03T03:33:35.282Z,1017.86
2016-12-03T03:34:14.061Z,1017.86
2016-12-03T03:34:52.848Z,1017.87
2016-12-03T03:35:31.626Z,1017.88
2016-12-03T03:36:10.412Z,1017.85
2016-12-03T03:36:49.198Z,1017.88
2016-12-03T03:37:27.971Z,1017.84
2016-12-03T03:38:06.758Z,1017.85
2016-12-03T03:38:45.554Z,1017.78
2016-12-03T03:39:24.334Z,1017.83
2016-12-03T03:40:03.117Z,1017.83
2016-12-03T03:40:41.902Z,1017.85
2016-12-03T03:41:20.684Z,1017.87
2016-12-03T03:41:59.460Z,1017.87
2016-12-03T03:42:38.246Z,1017.9
2016-12-03T03:43:17.370Z,1017.91
2016-12-03T03:43:56.151Z,1017.91
2016-12-03T03:44:34.935Z,1017.89
2016-12-03T03:45:13.713Z,1017.89
2016-12-03T03:45:52.492Z,1017.94
2016-12-03T03:46:31.270Z,1017.93
2016-12-03T03:47:10.052Z,1017.94
2016-12-03T03:47:48.832Z,1017.92
2016-12-03T03:48:27.615Z,1017.9
2016-12-03T03:49:06.403Z,1017.91
2016-12-03T03:49:45.183Z,1017.91
2016-12-03T03:50:23.967Z,1017.89
2016-12-03T03:51:02.750Z,1017.93
2016-12-03T03:51:41.529Z,1017.91
2016-12-03T03:52:20.310Z,1017.88
2016-12-03T03:52:59.093Z,1017.85
2016-12-03T03:53:37.871Z,1017.9
2016-12-03T03:54:16.650Z,1017.85
2016-12-03T03:54:55.426Z,1017.86
2016-12-03T03:55:34.222Z,1017.84
2016-12-03T03:56:13.364Z,1017.83
2016-12-03T03:56:52.144Z,1017.83
2016-12-03T03:57:30.921Z,1017.84
2016-12-03T03:58:09.699Z,1017.8
2016-12-03T03:58:48.483Z,1017.82
2016-12-03T03:59:27.270Z,1017.84
2016-12-03T04:00:06.049Z,1017.87
2016-12-03T04:00:44.832Z,1017.86
2016-12-03T04:01:23.608Z,1017.83
2016-12-03T04:02:02.381Z,1017.81
2016-12-03T04:02:41.162Z,1017.82
2016-12-03T04:03:19.943Z,1017.89
2016-12-03T04:03:58.723Z,1017.84
2016-12-03T04:04:37.503Z,1017.87
2016-12-03T04:05:16.283Z,1017.84
2016-12-03T04:05:55.065Z,1017.85
2016-12-03T04:06:33.842Z,1017.81
2016-12-03T04:07:12.659Z,1017.82
2016-12-03T04:07:51.437Z,1017.77
2016-12-03T04:08:30.250Z,1017.78
2016-12-03T04:09:09.032Z,1017.77
2016-12-03T04:09:47.846Z,1017.82
2016-12-03T04:10:26.653Z,1017.82
2016-12-03T04:11:05.462Z,1017.82
2016-12-03T04:11:44.241Z,1017.81
2016-12-03T04:12:23.020Z,1017.79
2016-12-03T04:13:01.798Z,1017.76
2016-12-03T04:13:40.577Z,1017.76
2016-12-03T04:14:19.358Z,1017.78
2016-12-03T04:14:58.135Z,1017.78
2016-12-03T04:15:37.266Z,1017.79
2016-12-03T04:16:16.042Z,1017.83
2016-12-03T04:16:54.821Z,1017.85
2016-12-03T04:17:33.603Z,1017.86
2016-12-03T04:18:12.385Z,1017.85
2016-12-03T04:18:51.162Z,1017.82
2016-12-03T04:19:29.942Z,1017.82
2016-12-03T04:20:08.726Z,1017.82
2016-12-03T04:20:47.507Z,1017.8
2016-12-03T04:21:26.293Z,1017.8
2016-12-03T04:22:05.083Z,1017.81
2016-12-03T04:22:43.864Z,1017.77
2016-12-03T04:23:22.642Z,1017.76
2016-12-03T04:24:01.418Z,1017.77
2016-12-03T04:24:40.550Z,1017.78
2016-12-03T04:25:19.325Z,1017.82
2016-12-03T04:25:58.102Z,1017.84
2016-12-03T04:26:36.882Z,1017.83
2016-12-03T04:27:15.661Z,1017.83
2016-12-03T04:27:54.442Z,1017.83
2016-12-03T04:28:33.224Z,1017.81
2016-12-03T04:29:12.007Z,1017.86
2016-12-03T04:29:50.809Z,1017.83
2016-12-03T04:30:29.592Z,1017.86
2016-12-03T04:31:08.379Z,1017.92
2016-12-03T04:31:47.159Z,1017.85
2016-12-03T04:32:25.965Z,1017.83
2016-12-03T04:33:04.750Z,1017.83
2016-12-03T04:33:43.529Z,1017.83
2016-12-03T04:34:22.307Z,1017.81
2016-12-03T04:35:01.086Z,1017.77
2016-12-03T04:35:39.868Z,1017.77
2016-12-03T04:36:18.653Z,1017.79
2016-12-03T04:36:57.453Z,1017.84
2016-12-03T04:37:36.233Z,1017.78
2016-12-03T04:38:15.063Z,1017.8
2016-12-03T04:38:53.845Z,1017.78
2016-12-03T04:39:32.627Z,1017.8
2016-12-03T04:40:11.413Z,1017.81
2016-12-03T04:40:50.190Z,1017.84
2016-12-03T04:41:28.965Z,1017.84
2016-12-03T04:42:07.744Z,1017.81
2016-12-03T04:42:46.523Z,1017.82
2016-12-03T04:43:25.302Z,1017.78
2016-12-03T04:44:04.086Z,1017.77
2016-12-03T04:44:42.863Z,1017.78
2016-12-03T04:45:21.646Z,1017.84
2016-12-03T04:46:00.421Z,1017.83
2016-12-03T04:46:39.201Z,1017.92
2016-12-03T04:47:17.978Z,1017.91
2016-12-03T04:47:56.756Z,1017.9
2016-12-03T04:48:35.537Z,1017.88
2016-12-03T04:49:14.315Z,1017.87
2016-12-03T04:49:53.096Z,1017.83
2016-12-03T04:50:31.873Z,1017.87
2016-12-03T04:51:10.653Z,1017.87
2016-12-03T04:51:49.432Z,1017.84
2016-12-03T04:52:28.214Z,1017.86
2016-12-03T04:53:06.993Z,1017.84
2016-12-03T04:53:45.773Z,1017.86
2016-12-03T04:54:24.557Z,1017.84
2016-12-03T04:55:03.337Z,1017.87
2016-12-03T04:55:42.117Z,1017.84
2016-12-03T04:56:20.896Z,1017.94
2016-12-03T04:56:59.677Z,1017.96
2016-12-03T04:57:38.459Z,1017.94
2016-12-03T04:58:17.237Z,1017.98
2016-12-03T04:58:56.014Z,1017.96
2016-12-03T04:59:34.799Z,1017.94
2016-12-03T05:00:13.609Z,1017.91
2016-12-03T05:00:52.388Z,1017.96
2016-12-03T05:01:31.177Z,1017.9
2016-12-03T05:02:09.962Z,1017.88
2016-12-03T05:02:48.741Z,1017.88
2016-12-03T05:03:27.523Z,1017.81
2016-12-03T05:04:06.329Z,1017.82
2016-12-03T05:04:45.127Z,1017.85
2016-12-03T05:05:23.905Z,1017.84
2016-12-03T05:06:02.687Z,1017.84
2016-12-03T05:06:41.502Z,1017.84
2016-12-03T05:07:20.287Z,1017.85
2016-12-03T05:07:59.063Z,1017.84
2016-12-03T05:08:37.876Z,1017.9
2016-12-03T05:09:16.658Z,1017.87
2016-12-03T05:09:55.442Z,1017.9
2016-12-03T05:10:34.223Z,1017.86
2016-12-03T05:11:13.004Z,1017.87
2016-12-03T05:11:51.780Z,1017.88
2016-12-03T05:12:30.558Z,1017.89
2016-12-03T05:13:09.334Z,1017.92
2016-12-03T05:13:48.115Z,1017.95
2016-12-03T05:14:26.900Z,1017.99
2016-12-03T05:15:05.689Z,1018.03
2016-12-03T05:15:44.469Z,1018.07
2016-12-03T05:16:23.251Z,1018.04
2016-12-03T05:17:02.035Z,1018.1
2016-12-03T05:17:40.815Z,1018.07
2016-12-03T05:18:19.605Z,1018.1
2016-12-03T05:18:58.386Z,1018.08
2016-12-03T05:19:37.193Z,1018.11
2016-12-03T05:20:15.976Z,1018.09
2016-12-03T05:20:54.753Z,1018.16
2016-12-03T05:21:33.562Z,1018.15
2016-12-03T05:22:12.346Z,1018.19
2016-12-03T05:22:51.125Z,1018.22
2016-12-03T05:23:29.911Z,1018.22
2016-12-03T05:24:08.688Z,1018.22
2016-12-03T05:24:47.467Z,1018.19
2016-12-03T05:25:26.612Z,1018.19
2016-12-03T05:26:05.395Z,1018.19
2016-12-03T05:26:44.184Z,1018.22
2016-12-03T05:27:22.964Z,1018.25
2016-12-03T05:28:01.749Z,1018.25
2016-12-03T05:28:40.531Z,1018.26
2016-12-03T05:29:19.321Z,1018.25
2016-12-03T05:29:58.103Z,1018.25
2016-12-03T05:30:37.598Z,1018.21
2016-12-03T05:31:16.381Z,1018.2
2016-12-03T05:31:55.161Z,1018.22
2016-12-03T05:32:33.945Z,1018.17
2016-12-03T05:33:13.079Z,1018.18
2016-12-03T05:33:51.872Z,1018.21
2016-12-03T05:34:30.681Z,1018.17
2016-12-03T05:35:09.480Z,1018.17
2016-12-03T05:35:48.266Z,1018.19
2016-12-03T05:36:27.047Z,1018.19
2016-12-03T05:37:05.853Z,1018.21
2016-12-03T05:37:44.644Z,1018.18
2016-12-03T05:38:23.425Z,1018.24
2016-12-03T05:39:02.217Z,1018.22
2016-12-03T05:39:41.004Z,1018.25
2016-12-03T05:40:19.786Z,1018.2
2016-12-03T05:40:58.562Z,1018.23
2016-12-03T05:41:37.348Z,1018.23
2016-12-03T05:42:16.126Z,1018.27
2016-12-03T05:42:54.908Z,1018.25
2016-12-03T05:43:33.685Z,1018.29
2016-12-03T05:44:12.500Z,1018.31
2016-12-03T05:44:51.284Z,1018.31
2016-12-03T05:45:30.065Z,1018.32
2016-12-03T05:46:08.844Z,1018.32
2016-12-03T05:46:47.625Z,1018.33
2016-12-03T05:47:26.403Z,1018.31
2016-12-03T05:48:05.178Z,1018.32
2016-12-03T05:48:43.957Z,1018.3
2016-12-03T05:49:22.735Z,1018.31
2016-12-03T05:50:01.512Z,1018.32
2016-12-03T05:50:40.290Z,1018.3
2016-12-03T05:51:19.067Z,1018.31
2016-12-03T05:51:57.858Z,1018.3
2016-12-03T05:52:36.640Z,1018.33
2016-12-03T05:53:15.419Z,1018.31
2016-12-03T05:53:54.199Z,1018.32
2016-12-03T05:54:32.981Z,1018.33
2016-12-03T05:55:11.757Z,1018.34
2016-12-03T05:55:50.537Z,1018.31
2016-12-03T05:56:29.316Z,1018.34
2016-12-03T05:57:08.092Z,1018.35
2016-12-03T05:57:46.871Z,1018.35
2016-12-03T05:58:26.006Z,1018.33
2016-12-03T05:59:04.788Z,1018.37
2016-12-03T05:59:43.566Z,1018.38
2016-12-03T06:00:22.344Z,1018.41
2016-12-03T06:01:01.145Z,1018.37
2016-12-03T06:01:40.634Z,1018.4
2016-12-03T06:02:19.411Z,1018.41
2016-12-03T06:02:58.191Z,1018.42
2016-12-03T06:03:36.975Z,1018.42
2016-12-03T06:04:15.750Z,1018.41
2016-12-03T06:04:54.532Z,1018.42
2016-12-03T06:05:33.314Z,1018.38
2016-12-03T06:06:12.091Z,1018.43
2016-12-03T06:06:50.869Z,1018.4
2016-12-03T06:07:29.650Z,1018.43
2016-12-03T06:08:08.437Z,1018.4
2016-12-03T06:08:47.221Z,1018.42
2016-12-03T06:09:26.006Z,1018.41
2016-12-03T06:10:04.791Z,1018.42
2016-12-03T06:10:43.601Z,1018.43
2016-12-03T06:11:22.383Z,1018.42
2016-12-03T06:12:01.191Z,1018.46
2016-12-03T06:12:39.971Z,1018.43
2016-12-03T06:13:18.754Z,1018.42
2016-12-03T06:13:57.537Z,1018.38
2016-12-03T06:14:36.315Z,1018.42
2016-12-03T06:15:15.094Z,1018.35
2016-12-03T06:15:53.873Z,1018.39
2016-12-03T06:16:32.654Z,1018.4
2016-12-03T06:17:11.434Z,1018.38
2016-12-03T06:17:50.213Z,1018.44
2016-12-03T06:18:29.026Z,1018.39
2016-12-03T06:19:07.813Z,1018.41
2016-12-03T06:19:46.595Z,1018.43
2016-12-03T06:20:25.371Z,1018.45
2016-12-03T06:21:04.152Z,1018.46
2016-12-03T06:21:42.934Z,1018.47
2016-12-03T06:22:21.715Z,1018.49
2016-12-03T06:23:00.494Z,1018.5
2016-12-03T06:23:39.281Z,1018.48
2016-12-03T06:24:18.059Z,1018.53
2016-12-03T06:24:56.838Z,1018.48
2016-12-03T06:25:35.621Z,1018.48
2016-12-03T06:26:14.405Z,1018.47
2016-12-03T06:26:53.185Z,1018.52
2016-12-03T06:27:31.964Z,1018.52
2016-12-03T06:28:10.747Z,1018.46
2016-12-03T06:28:49.531Z,1018.5
2016-12-03T06:29:28.316Z,1018.5
2016-12-03T06:30:07.094Z,1018.45
2016-12-03T06:30:45.874Z,1018.51
2016-12-03T06:31:24.663Z,1018.51
2016-12-03T06:32:03.440Z,1018.48
2016-12-03T06:32:42.226Z,1018.51
2016-12-03T06:33:21.032Z,1018.49
2016-12-03T06:33:59.814Z,1018.5
2016-12-03T06:34:38.951Z,1018.52
2016-12-03T06:35:18.070Z,1018.52
2016-12-03T06:35:56.853Z,1018.5
2016-12-03T06:36:35.634Z,1018.54
2016-12-03T06:37:14.761Z,1018.54
2016-12-03T06:37:53.540Z,1018.53
2016-12-03T06:38:32.323Z,1018.54
2016-12-03T06:39:11.102Z,1018.5
2016-12-03T06:39:49.879Z,1018.48
2016-12-03T06:40:28.656Z,1018.48
2016-12-03T06:41:07.447Z,1018.5
2016-12-03T06:41:46.227Z,1018.47
2016-12-03T06:42:25.004Z,1018.49
2016-12-03T06:43:03.785Z,1018.46
2016-12-03T06:43:42.566Z,1018.52
2016-12-03T06:44:21.345Z,1018.54
2016-12-03T06:45:00.122Z,1018.53
2016-12-03T06:45:38.903Z,1018.52
2016-12-03T06:46:17.682Z,1018.53
2016-12-03T06:46:56.462Z,1018.5
2016-12-03T06:47:35.242Z,1018.52
2016-12-03T06:48:14.027Z,1018.48
2016-12-03T06:48:52.809Z,1018.52
2016-12-03T06:49:31.594Z,1018.52
2016-12-03T06:50:10.374Z,1018.5
2016-12-03T06:50:49.160Z,1018.5
2016-12-03T06:51:27.947Z,1018.5
2016-12-03T06:52:06.728Z,1018.51
2016-12-03T06:52:45.513Z,1018.51
2016-12-03T06:53:24.299Z,1018.54
2016-12-03T06:54:03.084Z,1018.52
2016-12-03T06:54:41.862Z,1018.57
2016-12-03T06:55:20.644Z,1018.54
2016-12-03T06:55:59.425Z,1018.56
2016-12-03T06:56:38.203Z,1018.58
2016-12-03T06:57:16.982Z,1018.56
2016-12-03T06:57:55.762Z,1018.52
2016-12-03T06:58:34.543Z,1018.49
2016-12-03T06:59:13.325Z,1018.53
2016-12-03T06:59:52.106Z,1018.51
2016-12-03T07:00:30.896Z,1018.54
2016-12-03T07:01:09.679Z,1018.5
2016-12-03T07:01:48.465Z,1018.52
2016-12-03T07:02:27.245Z,1018.52
2016-12-03T07:03:06.026Z,1018.54
2016-12-03T07:03:44.813Z,1018.59
2016-12-03T07:04:23.605Z,1018.54
2016-12-03T07:05:02.396Z,1018.56
2016-12-03T07:05:41.185Z,1018.55
2016-12-03T07:06:19.978Z,1018.57
2016-12-03T07:06:58.773Z,1018.56
2016-12-03T07:07:37.551Z,1018.58
2016-12-03T07:08:16.328Z,1018.63
2016-12-03T07:08:55.113Z,1018.6
2016-12-03T07:09:33.894Z,1018.65
2016-12-03T07:10:12.670Z,1018.63
2016-12-03T07:10:51.449Z,1018.64
2016-12-03T07:11:30.238Z,1018.61
2016-12-03T07:12:09.042Z,1018.63
2016-12-03T07:12:47.845Z,1018.63
2016-12-03T07:13:26.624Z,1018.63
2016-12-03T07:14:05.401Z,1018.66
2016-12-03T07:14:44.180Z,1018.66
2016-12-03T07:15:22.960Z,1018.66
2016-12-03T07:16:01.742Z,1018.64
2016-12-03T07:16:40.520Z,1018.64
2016-12-03T07:17:19.300Z,1018.64
2016-12-03T07:17:58.084Z,1018.64
2016-12-03T07:18:36.874Z,1018.67
2016-12-03T07:19:15.654Z,1018.63
2016-12-03T07:19:54.434Z,1018.64
2016-12-03T07:20:33.210Z,1018.62
2016-12-03T07:21:11.988Z,1018.66
2016-12-03T07:21:50.773Z,1018.69
2016-12-03T07:22:29.903Z,1018.69
2016-12-03T07:23:08.682Z,1018.71
2016-12-03T07:23:47.464Z,1018.73
2016-12-03T07:24:26.243Z,1018.75
2016-12-03T07:25:05.021Z,1018.74
2016-12-03T07:25:43.810Z,1018.75
2016-12-03T07:26:22.593Z,1018.77
2016-12-03T07:27:01.372Z,1018.76
2016-12-03T07:27:40.154Z,1018.75
2016-12-03T07:28:18.934Z,1018.77
2016-12-03T07:28:57.714Z,1018.76
2016-12-03T07:29:36.496Z,1018.77
2016-12-03T07:30:15.277Z,1018.77
2016-12-03T07:30:54.061Z,1018.78
2016-12-03T07:31:32.841Z,1018.8
2016-12-03T07:32:11.624Z,1018.82
2016-12-03T07:32:50.407Z,1018.78
2016-12-03T07:33:29.180Z,1018.8
2016-12-03T07:34:07.962Z,1018.81
2016-12-03T07:34:46.739Z,1018.83
2016-12-03T07:35:25.515Z,1018.86
2016-12-03T07:36:04.299Z,1018.83
2016-12-03T07:36:43.080Z,1018.87
2016-12-03T07:37:21.858Z,1018.84
2016-12-03T07:38:00.640Z,1018.87
2016-12-03T07:38:39.422Z,1018.87
2016-12-03T07:39:18.201Z,1018.89
2016-12-03T07:39:56.984Z,1018.9
2016-12-03T07:40:35.760Z,1018.89
2016-12-03T07:41:14.543Z,1018.89
2016-12-03T07:41:53.327Z,1018.92
2016-12-03T07:42:32.145Z,1018.88
2016-12-03T07:43:10.928Z,1018.93
2016-12-03T07:43:49.708Z,1018.84
2016-12-03T07:44:28.494Z,1018.86
2016-12-03T07:45:07.275Z,1018.89
2016-12-03T07:45:46.055Z,1018.87
2016-12-03T07:46:24.835Z,1018.92
2016-12-03T07:47:03.627Z,1018.93
2016-12-03T07:47:42.405Z,1018.95
2016-12-03T07:48:21.185Z,1018.94
2016-12-03T07:48:59.962Z,1018.93
2016-12-03T07:49:38.746Z,1018.92
2016-12-03T07:50:17.527Z,1018.85
2016-12-03T07:50:56.306Z,1018.89